sensor_id;sensor_type;location;lat;lon;timestamp;P1;durP1;ratioP1;P2;durP2;ratioP2
20036;SDS011;10179;42.640;23.312;2023-06-22T00:00:51;9.68;;;5.43;;
20036;SDS011;10179;42.640;23.312;2023-06-22T00:03:20;7.70;;;5.03;;
20036;SDS011;10179;42.640;23.312;2023-06-22T00:05:46;10.43;;;5.93;;
20036;SDS011;10179;42.640;23.312;2023-06-22T00:08:13;10.63;;;5.28;;
20036;SDS011;10179;42.640;23.312;2023-06-22T00:10:39;8.43;;;5.00;;
20036;SDS011;10179;42.640;23.312;2023-06-22T00:13:07;8.40;;;5.05;;
20036;SDS011;10179;42.640;23.312;2023-06-22T00:15:34;8.13;;;5.18;;
20036;SDS011;10179;42.640;23.312;2023-06-22T00:17:59;7.40;;;4.35;;
20036;SDS011;10179;42.640;23.312;2023-06-22T00:20:26;8.77;;;4.93;;
20036;SDS011;10179;42.640;23.312;2023-06-22T00:22:53;8.32;;;4.88;;
20036;SDS011;10179;42.640;23.312;2023-06-22T00:25:19;8.80;;;4.70;;
20036;SDS011;10179;42.640;23.312;2023-06-22T00:27:44;8.88;;;4.88;;
20036;SDS011;10179;42.640;23.312;2023-06-22T00:30:10;7.90;;;4.50;;
20036;SDS011;10179;42.640;23.312;2023-06-22T00:32:36;6.28;;;4.20;;
20036;SDS011;10179;42.640;23.312;2023-06-22T00:35:01;7.93;;;4.40;;
20036;SDS011;10179;42.640;23.312;2023-06-22T00:37:27;10.40;;;4.68;;
20036;SDS011;10179;42.640;23.312;2023-06-22T00:39:54;8.02;;;4.40;;
20036;SDS011;10179;42.640;23.312;2023-06-22T00:42:20;8.05;;;4.10;;
20036;SDS011;10179;42.640;23.312;2023-06-22T00:44:45;10.50;;;4.30;;
20036;SDS011;10179;42.640;23.312;2023-06-22T00:47:11;8.10;;;5.05;;
20036;SDS011;10179;42.640;23.312;2023-06-22T00:49:39;6.50;;;3.92;;
20036;SDS011;10179;42.640;23.312;2023-06-22T00:52:05;7.10;;;4.32;;
20036;SDS011;10179;42.640;23.312;2023-06-22T00:54:42;6.70;;;4.05;;
20036;SDS011;10179;42.640;23.312;2023-06-22T00:57:11;5.35;;;4.13;;
20036;SDS011;10179;42.640;23.312;2023-06-22T00:59:44;10.27;;;6.13;;
20036;SDS011;10179;42.640;23.312;2023-06-22T01:02:10;9.93;;;5.60;;
20036;SDS011;10179;42.640;23.312;2023-06-22T01:04:36;8.55;;;5.95;;
20036;SDS011;10179;42.640;23.312;2023-06-22T01:09:45;9.48;;;5.18;;
20036;SDS011;10179;42.640;23.312;2023-06-22T01:12:34;8.30;;;4.80;;
20036;SDS011;10179;42.640;23.312;2023-06-22T01:15:39;17.63;;;4.97;;
20036;SDS011;10179;42.640;23.312;2023-06-22T01:17:58;6.88;;;4.25;;
20036;SDS011;10179;42.640;23.312;2023-06-22T01:20:27;7.10;;;4.70;;
20036;SDS011;10179;42.640;23.312;2023-06-22T01:25:48;7.00;;;4.72;;
20036;SDS011;10179;42.640;23.312;2023-06-22T01:30:55;8.15;;;4.47;;
20036;SDS011;10179;42.640;23.312;2023-06-22T01:33:34;7.50;;;5.45;;
20036;SDS011;10179;42.640;23.312;2023-06-22T01:36:04;8.27;;;5.32;;
20036;SDS011;10179;42.640;23.312;2023-06-22T01:38:31;8.48;;;5.32;;
20036;SDS011;10179;42.640;23.312;2023-06-22T01:40:58;9.88;;;5.68;;
20036;SDS011;10179;42.640;23.312;2023-06-22T01:43:26;7.55;;;5.10;;
20036;SDS011;10179;42.640;23.312;2023-06-22T01:45:53;8.23;;;5.10;;
20036;SDS011;10179;42.640;23.312;2023-06-22T01:48:19;8.45;;;5.47;;
20036;SDS011;10179;42.640;23.312;2023-06-22T01:50:46;7.78;;;5.20;;
20036;SDS011;10179;42.640;23.312;2023-06-22T01:53:12;7.55;;;5.68;;
20036;SDS011;10179;42.640;23.312;2023-06-22T01:55:38;8.55;;;5.47;;
20036;SDS011;10179;42.640;23.312;2023-06-22T01:58:03;8.00;;;5.47;;
20036;SDS011;10179;42.640;23.312;2023-06-22T02:00:30;7.78;;;5.53;;
20036;SDS011;10179;42.640;23.312;2023-06-22T02:05:37;10.57;;;5.07;;
20036;SDS011;10179;42.640;23.312;2023-06-22T02:08:08;6.95;;;5.45;;
20036;SDS011;10179;42.640;23.312;2023-06-22T02:10:37;12.98;;;5.70;;
20036;SDS011;10179;42.640;23.312;2023-06-22T02:13:06;11.63;;;6.10;;
20036;SDS011;10179;42.640;23.312;2023-06-22T02:15:33;8.65;;;5.80;;
20036;SDS011;10179;42.640;23.312;2023-06-22T02:18:00;9.75;;;6.25;;
20036;SDS011;10179;42.640;23.312;2023-06-22T02:20:26;9.00;;;5.60;;
20036;SDS011;10179;42.640;23.312;2023-06-22T02:22:51;12.77;;;6.55;;
20036;SDS011;10179;42.640;23.312;2023-06-22T02:25:16;9.98;;;6.75;;
20036;SDS011;10179;42.640;23.312;2023-06-22T02:27:42;10.60;;;6.28;;
20036;SDS011;10179;42.640;23.312;2023-06-22T02:30:08;10.25;;;6.20;;
20036;SDS011;10179;42.640;23.312;2023-06-22T02:32:37;8.38;;;6.20;;
20036;SDS011;10179;42.640;23.312;2023-06-22T02:35:02;11.60;;;6.07;;
20036;SDS011;10179;42.640;23.312;2023-06-22T02:37:30;8.57;;;6.05;;
20036;SDS011;10179;42.640;23.312;2023-06-22T02:39:56;11.90;;;6.60;;
20036;SDS011;10179;42.640;23.312;2023-06-22T02:42:21;11.30;;;6.82;;
20036;SDS011;10179;42.640;23.312;2023-06-22T02:44:47;9.80;;;6.35;;
20036;SDS011;10179;42.640;23.312;2023-06-22T02:47:13;11.55;;;7.28;;
20036;SDS011;10179;42.640;23.312;2023-06-22T02:49:38;9.85;;;7.18;;
20036;SDS011;10179;42.640;23.312;2023-06-22T02:52:04;9.23;;;6.65;;
20036;SDS011;10179;42.640;23.312;2023-06-22T02:54:29;14.10;;;8.27;;
20036;SDS011;10179;42.640;23.312;2023-06-22T02:56:55;12.88;;;6.65;;
20036;SDS011;10179;42.640;23.312;2023-06-22T02:59:20;12.02;;;7.75;;
20036;SDS011;10179;42.640;23.312;2023-06-22T03:01:49;10.98;;;7.63;;
20036;SDS011;10179;42.640;23.312;2023-06-22T03:04:15;13.35;;;7.65;;
20036;SDS011;10179;42.640;23.312;2023-06-22T03:06:41;11.82;;;7.30;;
20036;SDS011;10179;42.640;23.312;2023-06-22T03:09:06;9.48;;;6.72;;
20036;SDS011;10179;42.640;23.312;2023-06-22T03:11:33;14.00;;;7.60;;
20036;SDS011;10179;42.640;23.312;2023-06-22T03:13:59;14.18;;;7.00;;
20036;SDS011;10179;42.640;23.312;2023-06-22T03:16:25;9.02;;;6.72;;
20036;SDS011;10179;42.640;23.312;2023-06-22T03:18:51;9.77;;;6.78;;
20036;SDS011;10179;42.640;23.312;2023-06-22T03:21:18;11.68;;;7.18;;
20036;SDS011;10179;42.640;23.312;2023-06-22T03:23:44;14.15;;;8.10;;
20036;SDS011;10179;42.640;23.312;2023-06-22T03:26:10;14.32;;;7.55;;
20036;SDS011;10179;42.640;23.312;2023-06-22T03:28:35;12.38;;;7.90;;
20036;SDS011;10179;42.640;23.312;2023-06-22T03:31:02;14.05;;;8.20;;
20036;SDS011;10179;42.640;23.312;2023-06-22T03:33:28;14.00;;;7.10;;
20036;SDS011;10179;42.640;23.312;2023-06-22T03:35:53;9.93;;;7.35;;
20036;SDS011;10179;42.640;23.312;2023-06-22T03:38:19;10.88;;;7.10;;
20036;SDS011;10179;42.640;23.312;2023-06-22T03:40:44;13.98;;;7.40;;
20036;SDS011;10179;42.640;23.312;2023-06-22T03:43:10;12.00;;;6.95;;
20036;SDS011;10179;42.640;23.312;2023-06-22T03:45:35;13.10;;;7.57;;
20036;SDS011;10179;42.640;23.312;2023-06-22T03:48:01;13.40;;;6.65;;
20036;SDS011;10179;42.640;23.312;2023-06-22T03:50:27;14.98;;;7.68;;
20036;SDS011;10179;42.640;23.312;2023-06-22T03:52:52;14.80;;;7.80;;
20036;SDS011;10179;42.640;23.312;2023-06-22T03:55:19;15.40;;;7.82;;
20036;SDS011;10179;42.640;23.312;2023-06-22T03:57:45;10.82;;;6.72;;
20036;SDS011;10179;42.640;23.312;2023-06-22T04:00:11;13.98;;;7.32;;
20036;SDS011;10179;42.640;23.312;2023-06-22T04:02:37;12.27;;;7.30;;
20036;SDS011;10179;42.640;23.312;2023-06-22T04:05:02;19.15;;;8.10;;
20036;SDS011;10179;42.640;23.312;2023-06-22T04:07:27;14.25;;;7.95;;
20036;SDS011;10179;42.640;23.312;2023-06-22T04:09:53;12.77;;;7.60;;
20036;SDS011;10179;42.640;23.312;2023-06-22T04:12:18;12.77;;;7.80;;
20036;SDS011;10179;42.640;23.312;2023-06-22T04:14:45;16.27;;;8.27;;
20036;SDS011;10179;42.640;23.312;2023-06-22T04:17:12;15.75;;;7.90;;
20036;SDS011;10179;42.640;23.312;2023-06-22T04:19:40;16.60;;;7.90;;
20036;SDS011;10179;42.640;23.312;2023-06-22T04:22:06;12.23;;;7.22;;
20036;SDS011;10179;42.640;23.312;2023-06-22T04:24:35;14.88;;;7.63;;
20036;SDS011;10179;42.640;23.312;2023-06-22T04:27:02;12.25;;;7.65;;
20036;SDS011;10179;42.640;23.312;2023-06-22T04:29:30;15.52;;;7.60;;
20036;SDS011;10179;42.640;23.312;2023-06-22T04:32:00;13.55;;;7.70;;
20036;SDS011;10179;42.640;23.312;2023-06-22T04:34:28;12.40;;;7.20;;
20036;SDS011;10179;42.640;23.312;2023-06-22T04:36:54;12.25;;;7.20;;
20036;SDS011;10179;42.640;23.312;2023-06-22T04:39:21;19.10;;;7.82;;
20036;SDS011;10179;42.640;23.312;2023-06-22T04:41:49;13.32;;;7.25;;
20036;SDS011;10179;42.640;23.312;2023-06-22T04:44:17;14.43;;;7.60;;
20036;SDS011;10179;42.640;23.312;2023-06-22T04:46:57;11.45;;;7.32;;
20036;SDS011;10179;42.640;23.312;2023-06-22T04:49:29;13.85;;;6.97;;
20036;SDS011;10179;42.640;23.312;2023-06-22T04:52:09;10.23;;;7.10;;
20036;SDS011;10179;42.640;23.312;2023-06-22T04:54:37;14.63;;;7.38;;
20036;SDS011;10179;42.640;23.312;2023-06-22T04:57:13;15.20;;;7.72;;
20036;SDS011;10179;42.640;23.312;2023-06-22T04:59:40;17.20;;;7.97;;
20036;SDS011;10179;42.640;23.312;2023-06-22T05:02:07;15.82;;;8.35;;
20036;SDS011;10179;42.640;23.312;2023-06-22T05:04:34;19.17;;;8.27;;
20036;SDS011;10179;42.640;23.312;2023-06-22T05:07:03;16.38;;;7.95;;
20036;SDS011;10179;42.640;23.312;2023-06-22T05:09:29;16.95;;;9.18;;
20036;SDS011;10179;42.640;23.312;2023-06-22T05:11:55;14.77;;;9.10;;
20036;SDS011;10179;42.640;23.312;2023-06-22T05:14:24;12.10;;;8.20;;
20036;SDS011;10179;42.640;23.312;2023-06-22T05:16:50;15.55;;;8.80;;
20036;SDS011;10179;42.640;23.312;2023-06-22T05:19:17;17.55;;;8.75;;
20036;SDS011;10179;42.640;23.312;2023-06-22T05:21:42;14.55;;;8.43;;
20036;SDS011;10179;42.640;23.312;2023-06-22T05:24:07;17.45;;;8.38;;
20036;SDS011;10179;42.640;23.312;2023-06-22T05:26:33;12.73;;;7.78;;
20036;SDS011;10179;42.640;23.312;2023-06-22T05:29:00;17.83;;;7.97;;
20036;SDS011;10179;42.640;23.312;2023-06-22T05:31:26;12.48;;;7.28;;
20036;SDS011;10179;42.640;23.312;2023-06-22T05:33:53;12.13;;;7.57;;
20036;SDS011;10179;42.640;23.312;2023-06-22T05:36:19;16.13;;;8.95;;
20036;SDS011;10179;42.640;23.312;2023-06-22T05:38:46;13.98;;;8.48;;
20036;SDS011;10179;42.640;23.312;2023-06-22T05:41:12;13.38;;;7.97;;
20036;SDS011;10179;42.640;23.312;2023-06-22T05:43:39;15.30;;;7.55;;
20036;SDS011;10179;42.640;23.312;2023-06-22T05:46:04;13.98;;;7.80;;
20036;SDS011;10179;42.640;23.312;2023-06-22T05:48:30;14.02;;;8.75;;
20036;SDS011;10179;42.640;23.312;2023-06-22T05:50:56;18.25;;;7.70;;
20036;SDS011;10179;42.640;23.312;2023-06-22T05:53:24;14.32;;;7.68;;
20036;SDS011;10179;42.640;23.312;2023-06-22T05:55:50;16.80;;;8.25;;
20036;SDS011;10179;42.640;23.312;2023-06-22T05:58:15;14.23;;;8.48;;
20036;SDS011;10179;42.640;23.312;2023-06-22T06:00:41;15.20;;;7.70;;
20036;SDS011;10179;42.640;23.312;2023-06-22T06:03:08;21.33;;;7.93;;
20036;SDS011;10179;42.640;23.312;2023-06-22T06:05:34;12.70;;;7.45;;
20036;SDS011;10179;42.640;23.312;2023-06-22T06:08:01;18.63;;;7.90;;
20036;SDS011;10179;42.640;23.312;2023-06-22T06:10:28;13.15;;;8.40;;
20036;SDS011;10179;42.640;23.312;2023-06-22T06:12:55;13.48;;;7.45;;
20036;SDS011;10179;42.640;23.312;2023-06-22T06:15:23;14.50;;;8.15;;
20036;SDS011;10179;42.640;23.312;2023-06-22T06:17:49;15.93;;;8.13;;
20036;SDS011;10179;42.640;23.312;2023-06-22T06:20:18;11.55;;;8.18;;
20036;SDS011;10179;42.640;23.312;2023-06-22T06:22:45;15.30;;;9.07;;
20036;SDS011;10179;42.640;23.312;2023-06-22T06:25:11;15.57;;;8.50;;
20036;SDS011;10179;42.640;23.312;2023-06-22T06:27:41;11.45;;;7.55;;
20036;SDS011;10179;42.640;23.312;2023-06-22T06:30:11;16.77;;;8.07;;
20036;SDS011;10179;42.640;23.312;2023-06-22T06:32:37;13.63;;;8.27;;
20036;SDS011;10179;42.640;23.312;2023-06-22T06:35:06;11.88;;;7.93;;
20036;SDS011;10179;42.640;23.312;2023-06-22T06:37:35;12.48;;;7.63;;
20036;SDS011;10179;42.640;23.312;2023-06-22T06:40:02;12.02;;;7.28;;
20036;SDS011;10179;42.640;23.312;2023-06-22T06:42:35;11.50;;;7.63;;
20036;SDS011;10179;42.640;23.312;2023-06-22T06:45:04;17.67;;;7.70;;
20036;SDS011;10179;42.640;23.312;2023-06-22T06:47:30;14.23;;;8.13;;
20036;SDS011;10179;42.640;23.312;2023-06-22T06:49:55;17.77;;;8.40;;
20036;SDS011;10179;42.640;23.312;2023-06-22T06:52:21;13.13;;;7.53;;
20036;SDS011;10179;42.640;23.312;2023-06-22T06:54:46;12.18;;;6.93;;
20036;SDS011;10179;42.640;23.312;2023-06-22T06:57:12;14.45;;;7.13;;
20036;SDS011;10179;42.640;23.312;2023-06-22T06:59:38;12.90;;;7.25;;
20036;SDS011;10179;42.640;23.312;2023-06-22T07:02:04;13.93;;;7.50;;
20036;SDS011;10179;42.640;23.312;2023-06-22T07:04:30;13.63;;;7.60;;
20036;SDS011;10179;42.640;23.312;2023-06-22T07:06:55;12.07;;;6.75;;
20036;SDS011;10179;42.640;23.312;2023-06-22T07:09:21;13.00;;;7.50;;
20036;SDS011;10179;42.640;23.312;2023-06-22T07:11:46;17.80;;;6.93;;
20036;SDS011;10179;42.640;23.312;2023-06-22T07:14:11;14.43;;;7.15;;
20036;SDS011;10179;42.640;23.312;2023-06-22T07:16:37;13.30;;;7.53;;
20036;SDS011;10179;42.640;23.312;2023-06-22T07:19:02;14.93;;;8.15;;
20036;SDS011;10179;42.640;23.312;2023-06-22T07:21:27;16.08;;;8.48;;
20036;SDS011;10179;42.640;23.312;2023-06-22T07:23:53;20.30;;;8.27;;
20036;SDS011;10179;42.640;23.312;2023-06-22T07:26:19;13.65;;;8.38;;
20036;SDS011;10179;42.640;23.312;2023-06-22T07:28:44;13.95;;;6.72;;
20036;SDS011;10179;42.640;23.312;2023-06-22T07:31:10;13.48;;;7.97;;
20036;SDS011;10179;42.640;23.312;2023-06-22T07:33:35;14.90;;;7.78;;
20036;SDS011;10179;42.640;23.312;2023-06-22T07:36:01;13.18;;;7.70;;
20036;SDS011;10179;42.640;23.312;2023-06-22T07:38:27;11.70;;;7.85;;
20036;SDS011;10179;42.640;23.312;2023-06-22T07:40:53;16.13;;;7.45;;
20036;SDS011;10179;42.640;23.312;2023-06-22T07:43:18;12.57;;;7.45;;
20036;SDS011;10179;42.640;23.312;2023-06-22T07:45:50;19.10;;;9.93;;
20036;SDS011;10179;42.640;23.312;2023-06-22T07:48:21;19.40;;;8.50;;
20036;SDS011;10179;42.640;23.312;2023-06-22T07:50:47;12.50;;;7.85;;
20036;SDS011;10179;42.640;23.312;2023-06-22T07:53:13;14.18;;;8.27;;
20036;SDS011;10179;42.640;23.312;2023-06-22T07:55:38;15.27;;;8.25;;
20036;SDS011;10179;42.640;23.312;2023-06-22T07:58:04;12.13;;;7.72;;
20036;SDS011;10179;42.640;23.312;2023-06-22T08:00:29;14.27;;;7.93;;
20036;SDS011;10179;42.640;23.312;2023-06-22T08:02:54;10.57;;;7.47;;
20036;SDS011;10179;42.640;23.312;2023-06-22T08:05:20;13.15;;;8.32;;
20036;SDS011;10179;42.640;23.312;2023-06-22T08:07:45;11.57;;;7.00;;
20036;SDS011;10179;42.640;23.312;2023-06-22T08:10:11;13.90;;;8.00;;
20036;SDS011;10179;42.640;23.312;2023-06-22T08:12:37;15.00;;;7.32;;
20036;SDS011;10179;42.640;23.312;2023-06-22T08:15:03;15.55;;;8.55;;
20036;SDS011;10179;42.640;23.312;2023-06-22T08:17:30;14.65;;;7.65;;
20036;SDS011;10179;42.640;23.312;2023-06-22T08:19:56;9.73;;;6.90;;
20036;SDS011;10179;42.640;23.312;2023-06-22T08:22:21;12.80;;;6.32;;
20036;SDS011;10179;42.640;23.312;2023-06-22T08:24:47;12.60;;;7.18;;
20036;SDS011;10179;42.640;23.312;2023-06-22T08:27:13;18.58;;;6.05;;
20036;SDS011;10179;42.640;23.312;2023-06-22T08:29:39;9.25;;;6.40;;
20036;SDS011;10179;42.640;23.312;2023-06-22T08:32:07;10.57;;;6.10;;
20036;SDS011;10179;42.640;23.312;2023-06-22T08:34:34;9.55;;;6.10;;
20036;SDS011;10179;42.640;23.312;2023-06-22T08:36:59;10.27;;;6.95;;
20036;SDS011;10179;42.640;23.312;2023-06-22T08:39:25;10.25;;;6.78;;
20036;SDS011;10179;42.640;23.312;2023-06-22T08:41:51;9.40;;;6.97;;
20036;SDS011;10179;42.640;23.312;2023-06-22T08:44:18;10.50;;;7.32;;
20036;SDS011;10179;42.640;23.312;2023-06-22T08:46:44;10.43;;;7.63;;
20036;SDS011;10179;42.640;23.312;2023-06-22T08:49:10;16.17;;;8.43;;
20036;SDS011;10179;42.640;23.312;2023-06-22T08:51:35;11.88;;;7.65;;
20036;SDS011;10179;42.640;23.312;2023-06-22T08:54:01;12.15;;;7.88;;
20036;SDS011;10179;42.640;23.312;2023-06-22T08:56:27;16.30;;;7.72;;
20036;SDS011;10179;42.640;23.312;2023-06-22T08:58:52;55.33;;;18.00;;
20036;SDS011;10179;42.640;23.312;2023-06-22T09:01:18;29.15;;;11.52;;
20036;SDS011;10179;42.640;23.312;2023-06-22T09:03:44;18.90;;;8.07;;
20036;SDS011;10179;42.640;23.312;2023-06-22T09:06:19;28.30;;;10.35;;
20036;SDS011;10179;42.640;23.312;2023-06-22T09:08:46;11.38;;;6.53;;
20036;SDS011;10179;42.640;23.312;2023-06-22T09:11:12;11.43;;;6.13;;
20036;SDS011;10179;42.640;23.312;2023-06-22T09:13:37;9.18;;;6.18;;
20036;SDS011;10179;42.640;23.312;2023-06-22T09:16:02;10.70;;;5.95;;
20036;SDS011;10179;42.640;23.312;2023-06-22T09:18:28;13.60;;;7.00;;
20036;SDS011;10179;42.640;23.312;2023-06-22T09:20:53;7.90;;;5.75;;
20036;SDS011;10179;42.640;23.312;2023-06-22T09:23:19;12.98;;;6.22;;
20036;SDS011;10179;42.640;23.312;2023-06-22T09:25:44;11.80;;;7.25;;
20036;SDS011;10179;42.640;23.312;2023-06-22T09:28:12;11.43;;;6.72;;
20036;SDS011;10179;42.640;23.312;2023-06-22T09:30:37;7.78;;;6.00;;
20036;SDS011;10179;42.640;23.312;2023-06-22T09:33:03;9.82;;;6.90;;
20036;SDS011;10179;42.640;23.312;2023-06-22T09:35:28;10.50;;;6.35;;
20036;SDS011;10179;42.640;23.312;2023-06-22T09:37:53;9.27;;;6.20;;
20036;SDS011;10179;42.640;23.312;2023-06-22T09:40:19;9.05;;;5.70;;
20036;SDS011;10179;42.640;23.312;2023-06-22T09:42:45;11.27;;;6.38;;
20036;SDS011;10179;42.640;23.312;2023-06-22T09:45:10;8.80;;;6.53;;
20036;SDS011;10179;42.640;23.312;2023-06-22T09:47:36;10.82;;;6.80;;
20036;SDS011;10179;42.640;23.312;2023-06-22T09:50:01;9.70;;;5.60;;
20036;SDS011;10179;42.640;23.312;2023-06-22T09:52:27;13.15;;;7.55;;
20036;SDS011;10179;42.640;23.312;2023-06-22T09:54:52;8.73;;;6.57;;
20036;SDS011;10179;42.640;23.312;2023-06-22T09:57:18;9.95;;;6.10;;
20036;SDS011;10179;42.640;23.312;2023-06-22T09:59:43;8.75;;;5.18;;
20036;SDS011;10179;42.640;23.312;2023-06-22T10:02:09;9.48;;;6.05;;
20036;SDS011;10179;42.640;23.312;2023-06-22T10:04:34;8.43;;;5.43;;
20036;SDS011;10179;42.640;23.312;2023-06-22T10:07:01;9.05;;;6.28;;
20036;SDS011;10179;42.640;23.312;2023-06-22T10:09:27;7.65;;;5.90;;
20036;SDS011;10179;42.640;23.312;2023-06-22T10:11:52;10.77;;;7.63;;
20036;SDS011;10179;42.640;23.312;2023-06-22T10:14:18;8.95;;;5.93;;
20036;SDS011;10179;42.640;23.312;2023-06-22T10:16:43;11.63;;;6.10;;
20036;SDS011;10179;42.640;23.312;2023-06-22T10:19:09;6.47;;;5.68;;
20036;SDS011;10179;42.640;23.312;2023-06-22T10:21:34;9.88;;;5.50;;
20036;SDS011;10179;42.640;23.312;2023-06-22T10:24:00;10.85;;;7.32;;
20036;SDS011;10179;42.640;23.312;2023-06-22T10:26:31;7.47;;;5.00;;
20036;SDS011;10179;42.640;23.312;2023-06-22T10:29:00;9.25;;;6.07;;
20036;SDS011;10179;42.640;23.312;2023-06-22T10:31:26;7.28;;;5.70;;
20036;SDS011;10179;42.640;23.312;2023-06-22T10:33:52;11.48;;;6.93;;
20036;SDS011;10179;42.640;23.312;2023-06-22T10:36:18;8.48;;;5.65;;
20036;SDS011;10179;42.640;23.312;2023-06-22T10:38:44;8.80;;;5.93;;
20036;SDS011;10179;42.640;23.312;2023-06-22T10:41:10;7.32;;;5.57;;
20036;SDS011;10179;42.640;23.312;2023-06-22T10:43:35;9.63;;;6.03;;
20036;SDS011;10179;42.640;23.312;2023-06-22T10:46:01;11.13;;;6.07;;
20036;SDS011;10179;42.640;23.312;2023-06-22T10:48:26;7.72;;;5.82;;
20036;SDS011;10179;42.640;23.312;2023-06-22T10:50:52;8.57;;;5.88;;
20036;SDS011;10179;42.640;23.312;2023-06-22T10:53:18;7.68;;;5.50;;
20036;SDS011;10179;42.640;23.312;2023-06-22T10:55:43;8.55;;;5.72;;
20036;SDS011;10179;42.640;23.312;2023-06-22T10:58:09;10.93;;;5.88;;
20036;SDS011;10179;42.640;23.312;2023-06-22T11:00:34;8.70;;;5.28;;
20036;SDS011;10179;42.640;23.312;2023-06-22T11:03:00;7.85;;;5.70;;
20036;SDS011;10179;42.640;23.312;2023-06-22T11:05:25;9.30;;;5.97;;
20036;SDS011;10179;42.640;23.312;2023-06-22T11:07:51;6.90;;;5.53;;
20036;SDS011;10179;42.640;23.312;2023-06-22T11:10:16;10.30;;;6.50;;
20036;SDS011;10179;42.640;23.312;2023-06-22T11:12:42;7.95;;;5.53;;
20036;SDS011;10179;42.640;23.312;2023-06-22T11:15:08;7.95;;;5.53;;
20036;SDS011;10179;42.640;23.312;2023-06-22T11:17:34;7.30;;;5.80;;
20036;SDS011;10179;42.640;23.312;2023-06-22T11:20:00;22.27;;;8.88;;
20036;SDS011;10179;42.640;23.312;2023-06-22T11:22:27;9.20;;;6.25;;
20036;SDS011;10179;42.640;23.312;2023-06-22T11:24:52;16.33;;;6.50;;
20036;SDS011;10179;42.640;23.312;2023-06-22T11:27:17;8.25;;;6.07;;
20036;SDS011;10179;42.640;23.312;2023-06-22T11:29:43;9.55;;;6.13;;
20036;SDS011;10179;42.640;23.312;2023-06-22T11:32:08;10.15;;;5.90;;
20036;SDS011;10179;42.640;23.312;2023-06-22T11:34:34;8.65;;;5.70;;
20036;SDS011;10179;42.640;23.312;2023-06-22T11:36:59;8.07;;;5.85;;
20036;SDS011;10179;42.640;23.312;2023-06-22T11:39:25;7.78;;;5.90;;
20036;SDS011;10179;42.640;23.312;2023-06-22T11:41:50;8.77;;;5.93;;
20036;SDS011;10179;42.640;23.312;2023-06-22T11:44:16;10.27;;;6.38;;
20036;SDS011;10179;42.640;23.312;2023-06-22T11:46:41;10.57;;;6.25;;
20036;SDS011;10179;42.640;23.312;2023-06-22T11:49:07;9.25;;;6.50;;
20036;SDS011;10179;42.640;23.312;2023-06-22T11:51:33;8.52;;;6.40;;
20036;SDS011;10179;42.640;23.312;2023-06-22T11:53:58;10.15;;;6.07;;
20036;SDS011;10179;42.640;23.312;2023-06-22T11:56:23;8.43;;;5.28;;
20036;SDS011;10179;42.640;23.312;2023-06-22T11:58:49;14.73;;;6.35;;
20036;SDS011;10179;42.640;23.312;2023-06-22T12:01:14;9.38;;;6.50;;
20036;SDS011;10179;42.640;23.312;2023-06-22T12:03:40;10.82;;;6.25;;
20036;SDS011;10179;42.640;23.312;2023-06-22T12:06:08;11.60;;;6.32;;
20036;SDS011;10179;42.640;23.312;2023-06-22T12:08:33;7.97;;;6.15;;
20036;SDS011;10179;42.640;23.312;2023-06-22T12:10:59;10.07;;;6.55;;
20036;SDS011;10179;42.640;23.312;2023-06-22T12:13:24;12.68;;;6.93;;
20036;SDS011;10179;42.640;23.312;2023-06-22T12:15:50;8.93;;;6.35;;
20036;SDS011;10179;42.640;23.312;2023-06-22T12:18:17;10.43;;;7.57;;
20036;SDS011;10179;42.640;23.312;2023-06-22T12:20:45;12.68;;;7.50;;
20036;SDS011;10179;42.640;23.312;2023-06-22T12:23:11;8.20;;;6.20;;
20036;SDS011;10179;42.640;23.312;2023-06-22T12:25:36;10.10;;;6.47;;
20036;SDS011;10179;42.640;23.312;2023-06-22T12:28:01;11.02;;;6.82;;
20036;SDS011;10179;42.640;23.312;2023-06-22T12:30:27;12.50;;;6.72;;
20036;SDS011;10179;42.640;23.312;2023-06-22T12:32:53;13.60;;;6.15;;
20036;SDS011;10179;42.640;23.312;2023-06-22T12:35:18;11.63;;;6.30;;
20036;SDS011;10179;42.640;23.312;2023-06-22T12:37:44;15.23;;;6.10;;
20036;SDS011;10179;42.640;23.312;2023-06-22T12:40:09;8.80;;;5.50;;
20036;SDS011;10179;42.640;23.312;2023-06-22T12:42:35;7.80;;;5.55;;
20036;SDS011;10179;42.640;23.312;2023-06-22T12:45:01;12.95;;;6.63;;
20036;SDS011;10179;42.640;23.312;2023-06-22T12:47:26;10.25;;;5.93;;
20036;SDS011;10179;42.640;23.312;2023-06-22T12:49:52;8.48;;;5.22;;
20036;SDS011;10179;42.640;23.312;2023-06-22T12:52:17;9.95;;;6.20;;
20036;SDS011;10179;42.640;23.312;2023-06-22T12:54:42;12.85;;;6.70;;
20036;SDS011;10179;42.640;23.312;2023-06-22T12:57:08;11.70;;;6.65;;
20036;SDS011;10179;42.640;23.312;2023-06-22T12:59:33;10.77;;;6.55;;
20036;SDS011;10179;42.640;23.312;2023-06-22T13:01:59;13.43;;;6.47;;
20036;SDS011;10179;42.640;23.312;2023-06-22T13:04:24;12.82;;;6.55;;
20036;SDS011;10179;42.640;23.312;2023-06-22T13:06:49;13.45;;;6.47;;
20036;SDS011;10179;42.640;23.312;2023-06-22T13:09:15;10.00;;;6.63;;
20036;SDS011;10179;42.640;23.312;2023-06-22T13:11:43;15.75;;;6.60;;
20036;SDS011;10179;42.640;23.312;2023-06-22T13:14:08;12.93;;;7.20;;
20036;SDS011;10179;42.640;23.312;2023-06-22T13:16:33;13.13;;;6.93;;
20036;SDS011;10179;42.640;23.312;2023-06-22T13:18:59;11.68;;;6.75;;
20036;SDS011;10179;42.640;23.312;2023-06-22T13:21:24;12.10;;;7.30;;
20036;SDS011;10179;42.640;23.312;2023-06-22T13:23:50;15.15;;;7.32;;
20036;SDS011;10179;42.640;23.312;2023-06-22T13:26:15;19.10;;;7.50;;
20036;SDS011;10179;42.640;23.312;2023-06-22T13:28:41;15.38;;;8.10;;
20036;SDS011;10179;42.640;23.312;2023-06-22T13:31:06;14.98;;;7.35;;
20036;SDS011;10179;42.640;23.312;2023-06-22T13:33:32;10.98;;;6.70;;
20036;SDS011;10179;42.640;23.312;2023-06-22T13:35:57;12.00;;;8.10;;
20036;SDS011;10179;42.640;23.312;2023-06-22T13:38:22;10.25;;;7.15;;
20036;SDS011;10179;42.640;23.312;2023-06-22T13:40:48;13.30;;;7.43;;
20036;SDS011;10179;42.640;23.312;2023-06-22T13:43:14;16.13;;;7.63;;
20036;SDS011;10179;42.640;23.312;2023-06-22T13:45:40;11.38;;;8.48;;
20036;SDS011;10179;42.640;23.312;2023-06-22T13:48:06;11.50;;;7.13;;
20036;SDS011;10179;42.640;23.312;2023-06-22T13:50:32;15.20;;;7.70;;
20036;SDS011;10179;42.640;23.312;2023-06-22T13:52:57;11.85;;;7.50;;
20036;SDS011;10179;42.640;23.312;2023-06-22T13:55:23;13.57;;;7.90;;
20036;SDS011;10179;42.640;23.312;2023-06-22T13:57:48;12.88;;;7.35;;
20036;SDS011;10179;42.640;23.312;2023-06-22T14:00:14;12.82;;;7.55;;
20036;SDS011;10179;42.640;23.312;2023-06-22T14:02:40;13.77;;;7.45;;
20036;SDS011;10179;42.640;23.312;2023-06-22T14:05:06;16.15;;;7.55;;
20036;SDS011;10179;42.640;23.312;2023-06-22T14:07:32;19.70;;;7.43;;
20036;SDS011;10179;42.640;23.312;2023-06-22T14:09:57;15.55;;;6.85;;
20036;SDS011;10179;42.640;23.312;2023-06-22T14:12:23;14.98;;;6.55;;
20036;SDS011;10179;42.640;23.312;2023-06-22T14:14:49;15.77;;;6.47;;
20036;SDS011;10179;42.640;23.312;2023-06-22T14:17:14;19.17;;;7.05;;
20036;SDS011;10179;42.640;23.312;2023-06-22T14:19:40;12.82;;;8.35;;
20036;SDS011;10179;42.640;23.312;2023-06-22T14:22:05;18.70;;;8.20;;
20036;SDS011;10179;42.640;23.312;2023-06-22T14:24:31;20.88;;;7.82;;
20036;SDS011;10179;42.640;23.312;2023-06-22T14:26:56;14.32;;;8.27;;
20036;SDS011;10179;42.640;23.312;2023-06-22T14:29:22;20.23;;;9.82;;
20036;SDS011;10179;42.640;23.312;2023-06-22T14:31:48;15.10;;;7.80;;